createdAt,value
2019-04-09T00:01:20.001Z,93564.62
2019-04-09T00:03:46.163Z,93572.16
2019-04-09T00:06:12.639Z,93570.05
2019-04-09T00:08:38.878Z,93562.09
2019-04-09T00:11:05.865Z,93563.83
2019-04-09T00:13:31.927Z,93560.91
2019-04-09T00:15:58.519Z,93561.73
2019-04-09T00:18:25.327Z,93559.63
2019-04-09T00:20:50.703Z,93557.70
2019-04-09T00:23:17.920Z,93561.08
2019-04-09T00:25:44.555Z,93558.34
2019-04-09T00:28:09.952Z,93557.88
2019-04-09T00:30:36.267Z,93554.36
2019-04-09T00:33:03.606Z,93554.84
2019-04-09T00:35:28.894Z,93550.64
2019-04-09T00:37:56.140Z,93548.25
2019-04-09T00:40:21.897Z,93553.39
2019-04-09T00:42:48.128Z,93552.92
2019-04-09T00:45:14.458Z,93542.51
2019-04-09T00:47:40.782Z,93543.16
2019-04-09T00:50:07.222Z,93542.21
2019-04-09T00:52:34.229Z,93540.93
2019-04-09T00:54:59.809Z,93539.38
2019-04-09T00:57:27.013Z,93535.79
2019-04-09T00:59:52.850Z,93535.05
2019-04-09T01:02:18.823Z,93532.95
2019-04-09T01:04:45.198Z,93532.14
2019-04-09T01:07:12.379Z,93521.97
2019-04-09T01:09:38.168Z,93511.69
2019-04-09T01:12:04.469Z,93503.80
2019-04-09T01:14:31.573Z,93502.22
2019-04-09T01:16:57.117Z,93504.05
2019-04-09T01:19:24.559Z,93499.65
2019-04-09T01:21:50.037Z,93500.83
2019-04-09T01:24:28.898Z,93497.32
2019-04-09T01:26:42.751Z,93500.20
2019-04-09T01:29:09.577Z,93498.44
2019-04-09T01:31:36.572Z,93489.10
2019-04-09T01:34:01.623Z,93490.59
2019-04-09T01:36:27.944Z,93493.18
2019-04-09T01:38:54.276Z,93482.90
2019-04-09T01:41:21.499Z,93483.11
2019-04-09T01:43:47.230Z,93483.70
2019-04-09T01:46:13.500Z,93481.66
2019-04-09T01:48:40.610Z,93486.45
2019-04-09T01:51:08.946Z,93480.70
2019-04-09T01:53:36.425Z,93477.66
2019-04-09T01:56:02.349Z,93474.12
2019-04-09T01:58:28.853Z,93467.69
2019-04-09T02:00:54.731Z,93462.59
2019-04-09T02:03:20.905Z,93468.55
2019-04-09T02:05:47.772Z,93466.11
2019-04-09T02:08:13.740Z,93462.89
2019-04-09T02:10:40.995Z,93457.45
2019-04-09T02:13:07.342Z,93461.30
2019-04-09T02:15:32.891Z,93456.67
2019-04-09T02:17:59.515Z,93451.39
2019-04-09T02:20:25.627Z,93457.31
2019-04-09T02:22:51.981Z,93461.98
2019-04-09T02:25:18.972Z,93463.61
2019-04-09T02:27:46.415Z,93459.28
2019-04-09T02:30:12.592Z,93457.52
2019-04-09T02:32:37.597Z,93460.09
2019-04-09T02:35:04.998Z,93457.53
2019-04-09T02:37:30.519Z,93455.59
2019-04-09T02:39:56.782Z,93460.27
2019-04-09T02:42:23.198Z,93456.55
2019-04-09T02:44:50.054Z,93460.27
2019-04-09T02:47:15.822Z,93458.47
2019-04-09T02:49:42.185Z,93455.73
2019-04-09T02:52:09.276Z,93462.36
2019-04-09T02:54:35.808Z,93459.79
2019-04-09T02:57:01.337Z,93460.30
2019-04-09T02:59:28.016Z,93455.30
2019-04-09T03:01:54.870Z,93453.20
2019-04-09T03:04:20.646Z,93450.80
2019-04-09T03:06:46.811Z,93449.94
2019-04-09T03:09:13.152Z,93458.51
2019-04-09T03:11:40.077Z,93453.67
2019-04-09T03:14:05.985Z,93465.44
2019-04-09T03:16:32.274Z,93469.13
2019-04-09T03:18:58.603Z,93467.55
2019-04-09T03:21:25.922Z,93466.73
2019-04-09T03:23:51.780Z,93462.27
2019-04-09T03:26:17.794Z,93456.21
2019-04-09T03:28:44.873Z,93455.27
2019-04-09T03:31:11.590Z,93456.58
2019-04-09T03:33:38.261Z,93459.50
2019-04-09T03:36:03.102Z,93460.00
2019-04-09T03:38:29.452Z,93452.31
2019-04-09T03:40:56.218Z,93458.61
2019-04-09T03:43:22.975Z,93456.41
2019-04-09T03:45:49.354Z,93461.58
2019-04-09T03:48:15.204Z,93467.53
2019-04-09T03:50:41.201Z,93465.46
2019-04-09T03:53:07.894Z,93461.59
2019-04-09T03:55:34.272Z,93460.82
2019-04-09T03:58:12.718Z,93463.39
2019-04-09T04:00:27.006Z,93461.30
2019-04-09T04:02:55.481Z,93466.83
2019-04-09T04:05:20.822Z,93461.98
2019-04-09T04:07:46.293Z,93454.60
2019-04-09T04:10:13.324Z,93462.66
2019-04-09T04:12:39.451Z,93461.20
2019-04-09T04:15:05.758Z,93460.89
2019-04-09T04:17:31.883Z,93464.30
2019-04-09T04:19:58.137Z,93461.25
2019-04-09T04:22:24.851Z,93472.19
2019-04-09T04:24:50.575Z,93468.02
2019-04-09T04:27:17.758Z,93467.06
2019-04-09T04:29:43.868Z,93471.73
2019-04-09T04:32:09.613Z,93465.94
2019-04-09T04:34:37.425Z,93477.86
2019-04-09T04:37:02.338Z,93477.84
2019-04-09T04:39:28.751Z,93481.55
2019-04-09T04:41:55.079Z,93477.85
2019-04-09T04:44:22.102Z,93483.19
2019-04-09T04:46:48.542Z,93484.00
2019-04-09T04:49:14.150Z,93483.02
2019-04-09T04:51:41.213Z,93477.75
2019-04-09T04:54:07.602Z,93482.41
2019-04-09T04:56:34.033Z,93480.97
2019-04-09T04:59:00.137Z,93481.78
2019-04-09T05:01:26.206Z,93486.28
2019-04-09T05:03:52.990Z,93481.30
2019-04-09T05:06:18.618Z,93482.41
2019-04-09T05:08:45.848Z,93482.45
2019-04-09T05:11:11.288Z,93488.41
2019-04-09T05:13:37.652Z,93485.16
2019-04-09T05:16:04.055Z,93485.49
2019-04-09T05:18:31.246Z,93483.23
2019-04-09T05:20:57.623Z,93481.70
2019-04-09T05:23:23.052Z,93485.25
2019-04-09T05:25:49.501Z,93485.39
2019-04-09T05:28:15.761Z,93479.77
2019-04-09T05:30:42.163Z,93489.89
2019-04-09T05:33:08.521Z,93491.69
2019-04-09T05:35:35.038Z,93496.37
2019-04-09T05:38:01.200Z,93493.77
2019-04-09T05:40:28.641Z,93494.25
2019-04-09T05:42:53.940Z,93496.51
2019-04-09T05:45:20.287Z,93498.78
2019-04-09T05:47:46.708Z,93497.80
2019-04-09T05:50:13.075Z,93499.91
2019-04-09T05:52:39.522Z,93500.08
2019-04-09T05:55:06.419Z,93499.27
2019-04-09T05:57:32.545Z,93506.38
2019-04-09T05:59:59.635Z,93505.25
2019-04-09T06:02:24.928Z,93507.98
2019-04-09T06:04:52.045Z,93508.97
2019-04-09T06:07:18.633Z,93508.64
2019-04-09T06:09:44.955Z,93507.03
2019-04-09T06:12:10.411Z,93518.95
2019-04-09T06:14:36.804Z,93513.16
2019-04-09T06:17:03.185Z,93514.13
2019-04-09T06:19:30.275Z,93514.80
2019-04-09T06:21:56.865Z,93513.16
2019-04-09T06:24:22.784Z,93507.71
2019-04-09T06:26:48.748Z,93518.66
2019-04-09T06:29:20.289Z,93526.41
2019-04-09T06:31:42.359Z,93521.42
2019-04-09T06:34:08.854Z,93528.02
2019-04-09T06:36:34.171Z,93533.66
2019-04-09T06:39:00.677Z,93530.91
2019-04-09T06:41:27.667Z,93533.37
2019-04-09T06:43:54.563Z,93532.70
2019-04-09T06:46:20.052Z,93527.40
2019-04-09T06:48:46.684Z,93527.08
2019-04-09T06:51:13.722Z,93530.13
2019-04-09T06:53:39.522Z,93535.63
2019-04-09T06:56:05.770Z,93541.94
2019-04-09T06:58:32.205Z,93543.55
2019-04-09T07:00:58.533Z,93547.23
2019-04-09T07:03:25.876Z,93552.69
2019-04-09T07:05:51.320Z,93554.34
2019-04-09T07:08:18.627Z,93560.32
2019-04-09T07:10:44.574Z,93559.98
2019-04-09T07:13:11.264Z,93563.38
2019-04-09T07:15:37.597Z,93566.63
2019-04-09T07:18:03.243Z,93573.70
2019-04-09T07:20:30.849Z,93573.72
2019-04-09T07:22:57.468Z,93578.69
2019-04-09T07:25:23.330Z,93576.77
2019-04-09T07:27:53.260Z,93571.94
2019-04-09T07:30:21.426Z,93579.02
2019-04-09T07:32:44.154Z,93581.11
2019-04-09T07:35:09.673Z,93572.58
2019-04-09T07:37:36.220Z,93579.85
2019-04-09T07:40:02.593Z,93579.85
2019-04-09T07:42:28.051Z,93585.47
2019-04-09T07:44:54.397Z,93581.61
2019-04-09T07:47:23.489Z,93577.75
2019-04-09T07:49:47.250Z,93582.26
2019-04-09T07:52:13.645Z,93583.08
2019-04-09T07:54:44.834Z,93584.04
2019-04-09T07:57:07.388Z,93588.72
2019-04-09T07:59:32.757Z,93583.72
2019-04-09T08:02:00.039Z,93585.98
2019-04-09T08:04:26.150Z,93580.50
2019-04-09T08:06:52.689Z,93581.61
2019-04-09T08:09:19.208Z,93583.86
2019-04-09T08:11:44.671Z,93595.65
2019-04-09T08:14:12.114Z,93592.27
2019-04-09T08:16:39.739Z,93597.73
2019-04-09T08:19:03.979Z,93601.46
2019-04-09T08:21:34.083Z,93601.30
2019-04-09T08:23:57.217Z,93600.31
2019-04-09T08:26:25.268Z,93598.07
2019-04-09T08:28:52.210Z,93605.33
2019-04-09T08:31:20.220Z,93595.66
2019-04-09T08:33:42.435Z,93597.42
2019-04-09T08:36:10.729Z,93595.47
2019-04-09T08:38:34.937Z,93603.23
2019-04-09T08:41:01.053Z,93597.09
2019-04-09T08:43:27.515Z,93599.34
2019-04-09T08:45:54.026Z,93600.81
2019-04-09T08:48:20.374Z,93598.54
2019-04-09T08:50:47.189Z,93599.51
2019-04-09T08:53:15.840Z,93604.05
2019-04-09T08:55:39.509Z,93599.19
2019-04-09T08:58:06.238Z,93608.86
2019-04-09T09:01:08.528Z,93600.33
2019-04-09T09:02:58.566Z,93605.81
2019-04-09T09:05:25.145Z,93601.30
2019-04-09T09:07:51.178Z,93603.21
2019-04-09T09:10:19.808Z,93602.43
2019-04-09T09:12:44.840Z,93611.59
2019-04-09T09:15:10.390Z,93604.36
2019-04-09T09:17:39.780Z,93601.93
2019-04-09T09:20:04.951Z,93614.21
2019-04-09T09:22:31.257Z,93610.97
2019-04-09T09:24:56.002Z,93610.49
2019-04-09T09:27:22.411Z,93617.75
2019-04-09T09:29:50.652Z,93612.25
2019-04-09T09:32:15.388Z,93619.52
2019-04-09T09:34:44.139Z,93618.08
2019-04-09T09:37:12.538Z,93616.78
2019-04-09T09:39:37.050Z,93618.88
2019-04-09T09:42:01.161Z,93616.13
2019-04-09T09:44:27.012Z,93615.16
2019-04-09T09:46:54.602Z,93613.55
2019-04-09T09:49:20.074Z,93617.73
2019-04-09T09:51:48.721Z,93613.41
2019-04-09T09:54:12.804Z,93609.52
2019-04-09T09:56:43.173Z,93602.42
2019-04-09T09:59:05.768Z,93610.82
2019-04-09T10:01:34.984Z,93612.11
2019-04-09T10:03:58.582Z,93614.69
2019-04-09T10:06:27.626Z,93615.50
2019-04-09T10:08:52.048Z,93608.06
2019-04-09T10:11:17.581Z,93611.30
2019-04-09T10:13:44.508Z,93612.91
2019-04-09T10:16:14.164Z,93613.71
2019-04-09T10:18:45.599Z,93616.95
2019-04-09T10:21:04.563Z,93610.31
2019-04-09T10:23:31.617Z,93617.73
2019-04-09T10:25:56.553Z,93622.09
2019-04-09T10:28:24.818Z,93627.28
2019-04-09T10:30:49.322Z,93619.84
2019-04-09T10:33:16.267Z,93627.09
2019-04-09T10:35:42.527Z,93629.05
2019-04-09T10:38:09.497Z,93622.59
2019-04-09T10:40:38.490Z,93625.33
2019-04-09T10:43:02.127Z,93618.23
2019-04-09T10:45:28.545Z,93620.33
2019-04-09T10:47:54.075Z,93628.73
2019-04-09T10:50:23.029Z,93620.80
2019-04-09T10:52:51.566Z,93622.91
2019-04-09T10:55:16.120Z,93621.63
2019-04-09T10:57:41.378Z,93625.02
2019-04-09T11:00:07.676Z,93625.98
2019-04-09T11:02:34.559Z,93629.68
2019-04-09T11:04:58.720Z,93628.23
2019-04-09T11:07:30.364Z,93632.91
2019-04-09T11:09:51.439Z,93632.77
2019-04-09T11:12:18.527Z,93633.90
2019-04-09T11:14:47.300Z,93635.67
2019-04-09T11:17:10.804Z,93639.55
2019-04-09T11:19:37.029Z,93639.69
2019-04-09T11:22:03.918Z,93638.55
2019-04-09T11:24:33.811Z,93644.36
2019-04-09T11:26:59.993Z,93641.45
2019-04-09T11:29:25.670Z,93649.69
2019-04-09T11:31:59.533Z,93652.27
2019-04-09T11:34:19.314Z,93648.72
2019-04-09T11:36:45.438Z,93648.72
2019-04-09T11:39:12.141Z,93645.50
2019-04-09T11:41:37.764Z,93645.98
2019-04-09T11:44:04.711Z,93648.09
2019-04-09T11:46:30.659Z,93647.27
2019-04-09T11:48:57.036Z,93642.92
2019-04-09T11:51:23.686Z,93653.39
2019-04-09T11:53:50.299Z,93653.56
2019-04-09T11:56:16.318Z,93647.12
2019-04-09T11:58:43.034Z,93639.53
2019-04-09T12:01:10.275Z,93648.23
2019-04-09T12:03:35.973Z,93645.65
2019-04-09T12:06:02.204Z,93648.23
2019-04-09T12:08:28.674Z,93648.71
2019-04-09T12:10:55.030Z,93641.94
2019-04-09T12:13:22.288Z,93649.67
2019-04-09T12:15:48.862Z,93647.09
2019-04-09T12:18:14.241Z,93653.88
2019-04-09T12:20:40.665Z,93648.09
2019-04-09T12:23:07.879Z,93645.66
2019-04-09T12:25:33.757Z,93648.40
2019-04-09T12:28:00.435Z,93647.11
2019-04-09T12:30:26.389Z,93644.84
2019-04-09T12:32:52.738Z,93650.98
2019-04-09T12:35:19.152Z,93652.42
2019-04-09T12:37:46.020Z,93653.57
2019-04-09T12:40:12.705Z,93651.63
2019-04-09T12:42:38.709Z,93654.88
2019-04-09T12:45:04.678Z,93657.45
2019-04-09T12:47:31.246Z,93661.33
2019-04-09T12:49:57.914Z,93665.34
2019-04-09T12:52:23.864Z,93660.67
2019-04-09T12:54:50.175Z,93660.53
2019-04-09T12:57:17.566Z,93663.27
2019-04-09T12:59:43.316Z,93660.67
2019-04-09T13:02:09.268Z,93662.61
2019-04-09T13:04:35.844Z,93662.11
2019-04-09T13:07:02.242Z,93672.00
2019-04-09T13:09:28.694Z,93659.73
2019-04-09T13:11:55.038Z,93669.90
2019-04-09T13:14:21.534Z,93676.50
2019-04-09T13:16:47.705Z,93671.34
2019-04-09T13:19:14.024Z,93674.59
2019-04-09T13:21:41.212Z,93676.04
2019-04-09T13:24:07.239Z,93679.44
2019-04-09T13:26:34.118Z,93682.98
2019-04-09T13:29:00.693Z,93684.42
2019-04-09T13:31:26.006Z,93686.69
2019-04-09T13:33:53.227Z,93691.84
2019-04-09T13:36:20.002Z,93698.80
2019-04-09T13:38:45.585Z,93695.72
2019-04-09T13:41:11.995Z,93697.66
2019-04-09T13:43:38.408Z,93694.27
2019-04-09T13:46:04.932Z,93699.75
2019-04-09T13:48:32.307Z,93704.91
2019-04-09T13:50:57.566Z,93709.76
2019-04-09T13:53:24.687Z,93710.08
2019-04-09T13:55:50.471Z,93713.95
2019-04-09T13:58:16.766Z,93718.00
2019-04-09T14:00:43.122Z,93722.51
2019-04-09T14:03:23.771Z,93728.33
2019-04-09T14:05:35.862Z,93728.62
2019-04-09T14:08:02.191Z,93728.62
2019-04-09T14:10:28.521Z,93733.91
2019-04-09T14:12:55.818Z,93733.61
2019-04-09T14:15:22.361Z,93740.86
2019-04-09T14:17:47.662Z,93737.84
2019-04-09T14:20:14.058Z,93735.05
2019-04-09T14:22:41.455Z,93737.96
2019-04-09T14:25:07.347Z,93740.38
2019-04-09T14:27:36.308Z,93737.16
2019-04-09T14:30:00.038Z,93739.42
2019-04-09T14:32:25.959Z,93736.51
2019-04-09T14:34:53.051Z,93740.72
2019-04-09T14:37:18.619Z,93739.08
2019-04-09T14:39:47.817Z,93744.91
2019-04-09T14:42:11.863Z,93753.95
2019-04-09T14:44:38.344Z,93747.33
2019-04-09T14:47:04.816Z,93738.13
2019-04-09T14:49:31.215Z,93742.17
2019-04-09T14:51:56.713Z,93738.28
2019-04-09T14:54:23.133Z,93735.22
2019-04-09T14:56:49.433Z,93731.02
2019-04-09T14:59:15.810Z,93740.72
2019-04-09T15:01:42.440Z,93739.14
2019-04-09T15:04:09.423Z,93741.03
2019-04-09T15:06:34.915Z,93749.90
2019-04-09T15:09:02.384Z,93748.78
2019-04-09T15:11:27.759Z,93755.54
2019-04-09T15:13:54.179Z,93753.78
2019-04-09T15:16:20.282Z,93756.19
2019-04-09T15:18:46.669Z,93754.56
2019-04-09T15:21:13.019Z,93755.22
2019-04-09T15:23:39.375Z,93747.47
2019-04-09T15:26:05.730Z,93748.75
2019-04-09T15:28:32.115Z,93746.65
2019-04-09T15:30:58.442Z,93742.31
2019-04-09T15:33:30.488Z,93751.50
2019-04-09T15:35:51.179Z,93753.91
2019-04-09T15:38:17.512Z,93757.96
2019-04-09T15:40:44.201Z,93764.72
2019-04-09T15:43:11.236Z,93764.72
2019-04-09T15:45:37.129Z,93760.20
2019-04-09T15:48:02.968Z,93760.52
2019-04-09T15:50:30.455Z,93762.78
2019-04-09T15:52:56.301Z,93768.91
2019-04-09T15:55:22.059Z,93764.25
2019-04-09T15:57:48.414Z,93763.12
2019-04-09T16:00:14.814Z,93770.99
2019-04-09T16:02:41.155Z,93775.99
2019-04-09T16:05:08.601Z,93781.63
2019-04-09T16:07:34.116Z,93785.20
2019-04-09T16:10:00.357Z,93778.59
2019-04-09T16:12:26.941Z,93781.17
2019-04-09T16:14:52.966Z,93785.83
2019-04-09T16:17:19.422Z,93777.39
2019-04-09T16:19:46.193Z,93785.64
2019-04-09T16:22:11.991Z,93785.45
2019-04-09T16:24:38.406Z,93790.92
2019-04-09T16:27:05.642Z,93795.13
2019-04-09T16:29:31.078Z,93795.73
2019-04-09T16:31:57.622Z,93804.45
2019-04-09T16:34:24.125Z,93801.25
2019-04-09T16:36:59.611Z,93801.41
2019-04-09T16:39:17.714Z,93804.81
2019-04-09T16:41:43.790Z,93798.33
2019-04-09T16:44:09.539Z,93801.25
2019-04-09T16:46:35.745Z,93805.71
2019-04-09T16:49:02.703Z,93810.42
2019-04-09T16:51:29.024Z,93809.78
2019-04-09T16:53:55.689Z,93809.95
2019-04-09T16:56:21.456Z,93813.81
2019-04-09T16:58:47.547Z,93816.53
2019-04-09T17:01:13.892Z,93813.65
2019-04-09T17:03:47.872Z,93814.60
2019-04-09T17:06:06.768Z,93820.21
2019-04-09T17:08:33.688Z,93816.98
2019-04-09T17:10:59.448Z,93816.48
2019-04-09T17:13:25.815Z,93819.06
2019-04-09T17:15:52.143Z,93825.17
2019-04-09T17:18:18.891Z,93829.05
2019-04-09T17:20:45.704Z,93827.76
2019-04-09T17:23:11.214Z,93828.56
2019-04-09T17:25:37.574Z,93836.48
2019-04-09T17:28:04.639Z,93839.67
2019-04-09T17:30:30.340Z,93840.45
2019-04-09T17:32:56.783Z,93850.16
2019-04-09T17:35:24.819Z,93847.58
2019-04-09T17:37:50.506Z,93847.58
2019-04-09T17:40:15.997Z,93849.98
2019-04-09T17:42:42.577Z,93856.13
2019-04-09T17:45:08.628Z,93855.15
2019-04-09T17:47:34.991Z,93857.39
2019-04-09T17:50:02.031Z,93859.59
2019-04-09T17:52:28.307Z,93863.02
2019-04-09T17:54:54.602Z,93863.36
2019-04-09T17:57:20.457Z,93878.50
2019-04-09T17:59:46.771Z,93880.23
2019-04-09T18:02:13.134Z,93875.55
2019-04-09T18:04:45.987Z,93883.45
2019-04-09T18:07:05.804Z,93884.75
2019-04-09T18:09:32.158Z,93890.04
2019-04-09T18:11:59.593Z,93892.14
2019-04-09T18:14:24.881Z,93893.30
2019-04-09T18:16:51.276Z,93897.30
2019-04-09T18:19:17.622Z,93908.09
2019-04-09T18:21:44.831Z,93909.07
2019-04-09T18:24:11.059Z,93911.45
2019-04-09T18:26:36.891Z,93908.09
2019-04-09T18:29:03.069Z,93913.38
2019-04-09T18:31:34.331Z,93912.09
2019-04-09T18:33:56.464Z,93912.43
2019-04-09T18:36:23.006Z,93907.75
2019-04-09T18:38:48.574Z,93906.45
2019-04-09T18:41:14.927Z,93909.48
2019-04-09T18:43:41.328Z,93917.21
2019-04-09T18:46:09.324Z,93924.77
2019-04-09T18:48:40.936Z,93931.26
2019-04-09T18:51:01.393Z,93929.80
2019-04-09T18:53:27.063Z,93929.62
2019-04-09T18:55:53.084Z,93919.95
2019-04-09T18:58:19.446Z,93918.33
2019-04-09T19:00:46.472Z,93925.89
2019-04-09T19:03:12.130Z,93927.31
2019-04-09T19:05:40.048Z,93927.81
2019-04-09T19:08:06.056Z,93920.86
2019-04-09T19:10:31.216Z,93924.13
2019-04-09T19:12:57.621Z,93924.73
2019-04-09T19:15:24.360Z,93928.60
2019-04-09T19:17:51.057Z,93927.95
2019-04-09T19:20:16.606Z,93929.88
2019-04-09T19:22:42.950Z,93930.36
2019-04-09T19:25:09.298Z,93934.40
2019-04-09T19:27:35.901Z,93928.59
2019-04-09T19:30:02.033Z,93937.31
2019-04-09T19:32:29.549Z,93935.82
2019-04-09T19:34:54.846Z,93928.73
2019-04-09T19:37:21.158Z,93932.25
2019-04-09T19:39:47.637Z,93936.28
2019-04-09T19:42:16.646Z,93939.52
2019-04-09T19:44:42.249Z,93935.34
2019-04-09T19:47:07.570Z,93940.80
2019-04-09T19:49:35.026Z,93935.34
2019-04-09T19:52:00.299Z,93936.89
2019-04-09T19:54:26.761Z,93936.89
2019-04-09T19:56:53.005Z,93937.53
2019-04-09T19:59:20.187Z,93941.40
2019-04-09T20:01:46.153Z,93934.31
2019-04-09T20:04:12.754Z,93935.94
2019-04-09T20:06:39.470Z,93926.11
2019-04-09T20:09:05.285Z,93930.14
2019-04-09T20:11:31.291Z,93925.59
2019-04-09T20:13:57.705Z,93920.60
2019-04-09T20:16:24.053Z,93924.81
2019-04-09T20:18:50.396Z,93929.15
2019-04-09T20:21:16.794Z,93921.25
2019-04-09T20:23:43.502Z,93924.30
2019-04-09T20:26:10.894Z,93928.81
2019-04-09T20:28:36.977Z,93929.15
2019-04-09T20:31:02.821Z,93919.78
2019-04-09T20:33:29.514Z,93921.72
2019-04-09T20:35:55.330Z,93922.48
2019-04-09T20:38:21.206Z,93922.62
2019-04-09T20:40:48.169Z,93931.28
2019-04-09T20:43:15.234Z,93928.19
2019-04-09T20:45:40.656Z,93928.14
2019-04-09T20:48:06.942Z,93925.39
2019-04-09T20:50:33.461Z,93929.55
2019-04-09T20:52:59.459Z,93930.45
2019-04-09T20:55:25.885Z,93930.14
2019-04-09T20:57:52.266Z,93933.02
2019-04-09T21:00:21.881Z,93932.46
2019-04-09T21:02:46.268Z,93939.21
2019-04-09T21:05:11.958Z,93934.98
2019-04-09T21:07:37.649Z,93937.69
2019-04-09T21:10:04.476Z,93938.67
2019-04-09T21:12:31.217Z,93928.66
2019-04-09T21:14:57.682Z,93929.90
2019-04-09T21:17:23.083Z,93933.89
2019-04-09T21:19:50.222Z,93939.84
2019-04-09T21:22:16.579Z,93940.31
2019-04-09T21:24:42.143Z,93932.38
2019-04-09T21:27:09.379Z,93935.11
2019-04-09T21:29:34.966Z,93939.44
2019-04-09T21:32:02.059Z,93945.83
2019-04-09T21:34:28.452Z,93945.83
2019-04-09T21:36:53.837Z,93941.31
2019-04-09T21:39:20.174Z,93945.17
2019-04-09T21:41:46.567Z,93937.87
2019-04-09T21:44:12.951Z,93938.50
2019-04-09T21:46:39.576Z,93942.83
2019-04-09T21:49:05.615Z,93943.13
2019-04-09T21:51:31.943Z,93941.36
2019-04-09T21:54:01.215Z,93941.78
2019-04-09T21:56:24.626Z,93945.33
2019-04-09T21:58:50.985Z,93941.94
2019-04-09T22:01:17.487Z,93946.74
2019-04-09T22:03:43.704Z,93939.18
2019-04-09T22:06:20.464Z,93949.13
2019-04-09T22:08:36.372Z,93946.69
2019-04-09T22:11:02.734Z,93948.60
2019-04-09T22:13:29.420Z,93952.94
2019-04-09T22:15:55.671Z,93952.59
2019-04-09T22:18:23.840Z,93948.42
2019-04-09T22:20:48.103Z,93944.69
2019-04-09T22:23:14.437Z,93943.74
2019-04-09T22:25:41.110Z,93941.30
2019-04-09T22:28:08.078Z,93942.55
2019-04-09T22:30:33.501Z,93946.73
2019-04-09T22:33:08.955Z,93940.92
2019-04-09T22:35:26.961Z,93944.31
2019-04-09T22:37:53.900Z,93947.83
2019-04-09T22:40:19.166Z,93943.78
2019-04-09T22:42:46.258Z,93936.19
2019-04-09T22:45:11.827Z,93936.00
2019-04-09T22:47:38.225Z,93938.92
2019-04-09T22:50:05.765Z,93939.52
2019-04-09T22:52:31.872Z,93942.91
2019-04-09T22:54:58.634Z,93949.97
2019-04-09T22:57:24.164Z,93947.18
2019-04-09T22:59:50.219Z,93941.69
2019-04-09T23:02:16.323Z,93946.83
2019-04-09T23:04:42.652Z,93938.77
2019-04-09T23:07:10.144Z,93939.40
2019-04-09T23:09:36.163Z,93939.75
2019-04-09T23:12:01.704Z,93937.17
2019-04-09T23:14:28.358Z,93944.55
2019-04-09T23:16:55.338Z,93945.30
2019-04-09T23:19:21.679Z,93945.30
2019-04-09T23:21:47.878Z,93942.54
2019-04-09T23:24:13.537Z,93945.11
2019-04-09T23:26:39.818Z,93945.23
2019-04-09T23:29:06.143Z,93942.19
2019-04-09T23:31:32.490Z,93943.48
2019-04-09T23:33:58.815Z,93945.39
2019-04-09T23:36:25.225Z,93942.13
2019-04-09T23:38:51.704Z,93942.63
2019-04-09T23:41:17.868Z,93938.42
2019-04-09T23:43:44.244Z,93942.41
2019-04-09T23:46:10.962Z,93943.70
2019-04-09T23:48:37.967Z,93934.56
2019-04-09T23:51:05.403Z,93936.95
2019-04-09T23:53:29.634Z,93939.05
2019-04-09T23:55:55.924Z,93946.55
2019-04-09T23:58:22.302Z,93949.13
